Portada
METAR-TAF:

METAR-TAF

Aeropuertos :

Pohnpei, Micronesia

Aeropuerto Internacional de Pohnpei

latitud: 06-59N, longitud: 158-12E, altitud: 2 m

Observación

El informe se hizo hace 41 minutos, a las 19:55 UTC
Viento 10 kt del este-noreste
Temperatura 28°C
Humedad 84%
Presión 1011 hPa
Visibilidad: 24.1 km
Cielo nuboso a una altura de 1800 ft
Cielo cubierto a una altura de 30000 ft

METAR: PTPN 271955Z 07010KT 15SM BKN018 OVC300 28/25 A2985

Hora: 07:36 (20:36 UTC)

Pronóstico

El informe se hizo hace 4 minutos, a las 20:32 UTC
Pronóstico válido del 27 a las 21 UTC al 28 a las 18 UTC
Viento 11 kt del este-noreste
Visibilidad: 10 km
Nubes dispersas a una altura de 1700 ft
Nubes dispersas a una altura de 10000 ft
chaparrones en las proximidades

TAF: PTPN 272032Z 2721/2818 07011KT P6SM VCSH SCT017 SCT100

Observaciones y pronósticos meteorológicos de más de 4000 aeropuertos (mensajes METAR y TAF).

Los puntos amarillos y rojos representan las estaciones disponibles.

Ponga el ratón en el punto deseado para ver el nombre de la estación.

Haga clic para ver las observaciones y los pronósticos meteorológicos.

Para cambiar el mapa : haga clic en los botones verdes con una cruz de color negro para hacer un zoom, en el botón verde con un guión para alejar o en las flechas verdes para mapas adyacentes.


METAR-TAF: